Time;durP1;ratioP1;P1;durP2;ratioP2;P2;SDS_P1;SDS_P2;PMS_P1;PMS_P2;Temp;Humidity;BMP_temperature;BMP_pressure;BME280_temperature;BME280_humidity;BME280_pressure;Samples;Min_cycle;Max_cycle;Signal;HPM_P1;HPM_P2
2022/01/13 00:01:45;;;;;;;45.42;21.48;;;;;;;-4.85;100.00;102217.66;5075070;28;20044;-71
2022/01/13 00:04:15;;;;;;;46.33;20.95;;;;;;;-4.95;100.00;102220.78;5075084;28;20063;-71
2022/01/13 00:06:44;;;;;;;42.17;19.50;;;;;;;-4.75;100.00;102219.75;5074885;28;20040;-72
2022/01/13 00:09:14;;;;;;;47.30;20.05;;;;;;;-4.86;100.00;102228.91;5074920;28;20094;-70
2022/01/13 00:11:45;;;;;;;46.50;21.15;;;;;;;-4.79;100.00;102228.28;5074926;28;20044;-72
2022/01/13 00:14:39;;;;;;;48.13;21.85;;;;;;;-5.00;100.00;102230.19;5075165;28;20052;-72
2022/01/13 00:17:30;;;;;;;;;;;;;;;-4.90;100.00;102233.13;5075243;28;20040;-71
2022/01/13 00:20:28;;;;;;;41.63;18.63;;;;;;;-4.84;100.00;102222.03;5074678;28;19921;-72
2022/01/13 00:25:57;;;;;;;47.75;20.80;;;;;;;-5.11;100.00;102226.31;5074578;28;20059;-71
2022/01/13 00:28:26;;;;;;;45.35;20.60;;;;;;;-5.16;100.00;102214.84;5075520;28;20051;-71
2022/01/13 00:30:56;;;;;;;49.55;21.90;;;;;;;-4.92;100.00;102223.53;5074471;28;20098;-72
2022/01/13 00:33:26;;;;;;;45.85;20.55;;;;;;;-4.85;100.00;102228.06;5074845;28;20058;-71
2022/01/13 00:36:00;;;;;;;47.90;21.25;;;;;;;-4.93;100.00;102233.00;5074316;28;20041;-70
2022/01/13 00:38:29;;;;;;;51.10;22.50;;;;;;;-4.98;100.00;102229.38;5074663;28;20037;-70
2022/01/13 00:40:59;;;;;;;50.90;21.58;;;;;;;-4.88;100.00;102225.38;5074260;28;20041;-72
2022/01/13 00:43:28;;;;;;;46.55;20.67;;;;;;;-4.74;100.00;102237.13;5074212;28;20044;-71
2022/01/13 00:45:56;;;;;;;49.10;20.70;;;;;;;-4.74;100.00;102226.72;5074077;28;20071;-72
2022/01/13 00:48:24;;;;;;;47.97;21.55;;;;;;;-4.84;100.00;102227.25;5074137;28;20101;-71
2022/01/13 00:50:52;;;;;;;47.40;21.15;;;;;;;-4.75;100.00;102227.56;5073761;28;20045;-71
2022/01/13 00:53:20;;;;;;;49.25;22.05;;;;;;;-4.84;100.00;102237.66;5074426;28;20048;-72
2022/01/13 00:55:57;;;;;;;51.75;22.00;;;;;;;-4.68;100.00;102237.34;5073673;28;20402;-72
2022/01/13 00:58:29;;;;;;;56.92;23.45;;;;;;;-4.62;100.00;102247.97;5074215;28;20040;-72
2022/01/13 01:00:59;;;;;;;52.70;21.90;;;;;;;-4.64;100.00;102249.63;5073455;28;20486;-71
2022/01/13 01:03:28;;;;;;;53.40;22.92;;;;;;;-4.76;100.00;102256.16;5073707;28;20135;-71
2022/01/13 01:05:57;;;;;;;54.20;22.08;;;;;;;-4.79;100.00;102254.34;5073695;28;20466;-71
2022/01/13 01:08:26;;;;;;;54.45;22.75;;;;;;;-4.72;100.00;102258.91;5073981;28;20044;-71
2022/01/13 01:10:55;;;;;;;53.50;22.90;;;;;;;-4.61;100.00;102262.78;5073578;28;20074;-69
2022/01/13 01:13:28;;;;;;;44.90;21.13;;;;;;;-4.41;100.00;102272.97;5073879;28;20044;-70
2022/01/13 01:16:00;;;;;;;51.70;23.17;;;;;;;-4.64;100.00;102262.63;5073658;28;20153;-71
2022/01/13 01:18:35;;;;;;;;;;;;;;;-4.63;100.00;102264.44;5074326;28;20393;-70
2022/01/13 01:21:32;;;;;;;44.40;20.02;;;;;;;-4.67;100.00;102272.09;5073477;28;20024;-70
2022/01/13 01:24:26;;;;;;;54.47;23.60;;;;;;;-4.66;100.00;102266.03;5073193;28;20044;-69
2022/01/13 01:26:57;;;;;;;55.63;24.33;;;;;;;-4.69;100.00;102255.53;5073175;28;20051;-69
2022/01/13 01:29:29;;;;;;;56.88;24.60;;;;;;;-4.84;100.00;102255.88;5073409;28;20440;-70
2022/01/13 01:32:00;;;;;;;53.25;24.63;;;;;;;-4.80;100.00;102265.59;5073175;28;20059;-71
2022/01/13 01:34:38;;;;;;;62.97;25.60;;;;;;;-4.75;100.00;102257.91;5073309;28;20123;-71
2022/01/13 01:37:13;;;;;;;58.90;24.85;;;;;;;-4.97;100.00;102245.88;5072956;28;20130;-71
2022/01/13 01:39:42;;;;;;;54.90;24.27;;;;;;;-4.98;100.00;102245.00;5073584;28;20044;-71
2022/01/13 01:42:11;;;;;;;55.20;25.73;;;;;;;-4.99;100.00;102252.75;5072930;28;20086;-71
2022/01/13 01:44:43;;;;;;;60.13;25.98;;;;;;;-5.08;100.00;102257.63;5073180;28;20413;-70
2022/01/13 01:47:15;;;;;;;43.13;19.65;;;;;;;-5.04;100.00;102249.09;5073184;28;20044;-71
2022/01/13 01:49:45;;;;;;;57.60;25.55;;;;;;;-5.07;100.00;102249.00;5073432;28;20036;-71
2022/01/13 01:52:16;;;;;;;61.22;25.80;;;;;;;-5.28;100.00;102256.94;5073331;28;20486;-71
2022/01/13 01:54:48;;;;;;;56.38;24.30;;;;;;;-5.37;100.00;102260.06;5073145;28;20040;-71
2022/01/13 01:57:17;;;;;;;54.67;25.63;;;;;;;-5.17;100.00;102247.78;5073320;28;20036;-70
2022/01/13 01:59:46;;;;;;;64.22;26.48;;;;;;;-5.19;100.00;102258.16;5072924;28;20044;-71
2022/01/13 02:02:16;;;;;;;62.35;26.27;;;;;;;-5.33;100.00;102256.75;5072740;28;20374;-71
2022/01/13 02:04:45;;;;;;;60.80;25.73;;;;;;;-5.39;100.00;102253.94;5072947;28;20043;-70
2022/01/13 02:07:14;;;;;;;59.08;25.90;;;;;;;-5.51;100.00;102256.06;5073064;28;20040;-70
2022/01/13 02:09:48;;;;;;;54.35;25.45;;;;;;;-5.50;100.00;102258.75;5073121;28;20037;-70
2022/01/13 02:12:28;;;;;;;57.80;26.50;;;;;;;-5.40;100.00;102254.78;5072372;28;20041;-71
2022/01/13 02:14:59;;;;;;;59.22;25.25;;;;;;;-5.41;100.00;102263.38;5072775;28;20048;-70
2022/01/13 02:17:34;;;;;;;60.47;25.75;;;;;;;-5.36;100.00;102258.38;5072815;28;20551;-71
2022/01/13 02:20:04;;;;;;;64.10;27.50;;;;;;;-5.32;100.00;102268.91;5072487;28;20072;-70
2022/01/13 02:22:33;;;;;;;64.72;26.77;;;;;;;-5.50;100.00;102257.84;5055035;28;20072;-71
2022/01/13 02:25:02;;;;;;;62.80;27.45;;;;;;;-5.55;100.00;102256.78;5054891;28;20052;-71
2022/01/13 02:27:30;;;;;;;65.20;29.85;;;;;;;-5.58;100.00;102256.69;5072928;28;20052;-71
2022/01/13 02:29:59;;;;;;;69.03;28.77;;;;;;;-5.40;100.00;102270.38;5072642;28;20087;-71
2022/01/13 02:32:27;;;;;;;61.95;28.88;;;;;;;-5.24;100.00;102267.50;5072553;28;20049;-71
2022/01/13 02:34:55;;;;;;;59.13;25.65;;;;;;;-5.07;100.00;102262.00;5072493;28;20049;-71
2022/01/13 02:37:24;;;;;;;60.85;26.67;;;;;;;-4.96;100.00;102263.28;5072826;28;20560;-69
2022/01/13 02:39:53;;;;;;;54.97;25.60;;;;;;;-5.05;100.00;102257.75;5072550;28;20040;-69
2022/01/13 02:42:21;;;;;;;58.30;26.08;;;;;;;-5.10;100.00;102259.31;5072747;28;20037;-69
2022/01/13 02:45:00;;;;;;;57.03;26.13;;;;;;;-5.02;100.00;102256.16;5072746;28;20132;-71
2022/01/13 02:48:00;;;;;;;61.42;27.67;;;;;;;-5.21;100.00;102252.00;5072618;28;20055;-68
2022/01/13 02:50:28;;;;;;;61.05;27.42;;;;;;;-5.40;100.00;102244.38;5072758;28;20469;-69
2022/01/13 02:52:56;;;;;;;68.70;30.00;;;;;;;-5.46;100.00;102244.13;5072121;28;20036;-70
2022/01/13 02:55:26;;;;;;;76.57;32.28;;;;;;;-5.58;100.00;102246.28;5072831;28;20145;-68
2022/01/13 02:57:54;;;;;;;84.30;34.97;;;;;;;-5.58;100.00;102239.38;5072445;28;20048;-68
2022/01/13 03:00:22;;;;;;;81.60;34.20;;;;;;;-5.63;100.00;102243.50;5072440;28;20093;-69
2022/01/13 03:02:51;;;;;;;88.00;37.30;;;;;;;-5.64;100.00;102251.25;5072502;28;20071;-68
2022/01/13 03:05:20;;;;;;;84.60;36.53;;;;;;;-5.72;100.00;102258.75;5072250;28;20044;-70
2022/01/13 03:07:49;;;;;;;94.75;37.53;;;;;;;-5.69;100.00;102250.19;5072539;28;20048;-70
2022/01/13 03:10:17;;;;;;;92.55;38.40;;;;;;;-5.64;100.00;102246.06;5072214;28;20048;-70
2022/01/13 03:12:47;;;;;;;96.78;39.00;;;;;;;-5.52;100.00;102251.69;5072186;28;20474;-70
2022/01/13 03:15:15;;;;;;;90.93;37.83;;;;;;;-5.45;100.00;102266.72;5072183;28;20080;-70
2022/01/13 03:17:43;;;;;;;98.97;41.58;;;;;;;-5.45;100.00;102260.63;5072436;28;20044;-70
2022/01/13 03:20:13;;;;;;;90.57;38.83;;;;;;;-5.45;100.00;102268.44;5071872;28;20044;-68
2022/01/13 03:22:41;;;;;;;100.55;41.22;;;;;;;-5.45;100.00;102271.03;5072571;28;20127;-68
2022/01/13 03:25:10;;;;;;;100.05;40.25;;;;;;;-5.39;100.00;102284.28;5075386;28;20097;-68
2022/01/13 03:27:40;;;;;;;86.60;36.00;;;;;;;-5.35;100.00;102283.53;5075863;28;20138;-69
2022/01/13 03:30:11;;;;;;;75.10;32.60;;;;;;;-5.32;100.00;102287.13;5075583;28;20094;-68
2022/01/13 03:32:39;;;;;;;77.35;32.33;;;;;;;-5.20;100.00;102287.59;5076074;28;20117;-70
2022/01/13 03:35:08;;;;;;;67.53;30.25;;;;;;;-4.94;100.00;102280.69;5075479;28;20090;-70
2022/01/13 03:37:36;;;;;;;77.13;30.75;;;;;;;-4.83;100.00;102281.06;5075760;28;20040;-71
2022/01/13 03:40:06;;;;;;;69.28;29.20;;;;;;;-4.68;100.00;102286.81;5075151;28;20468;-70
2022/01/13 03:42:34;;;;;;;75.57;31.05;;;;;;;-4.86;100.00;102282.69;5075825;28;20045;-70
2022/01/13 03:45:02;;;;;;;71.00;29.42;;;;;;;-5.11;100.00;102281.84;5075359;28;20437;-69
2022/01/13 03:47:32;;;;;;;67.13;29.55;;;;;;;-5.09;100.00;102281.91;5075626;28;20036;-69
2022/01/13 03:50:01;;;;;;;71.38;29.55;;;;;;;-5.03;100.00;102269.97;5074943;28;20040;-71
2022/01/13 03:53:25;;;;;;;71.63;30.63;;;;;;;-5.07;100.00;102278.50;5075208;28;20124;-69
2022/01/13 03:56:59;;;;;;;71.00;29.08;;;;;;;-5.08;100.00;102283.66;5075177;28;20460;-69
2022/01/13 03:59:48;;;;;;;63.70;28.03;;;;;;;-5.06;100.00;102282.00;5013356;28;20046;-69
2022/01/13 04:02:19;;;;;;;63.55;28.75;;;;;;;-5.12;100.00;102259.22;5069745;28;20068;-69
2022/01/13 04:04:50;;;;;;;68.20;28.63;;;;;;;-5.18;100.00;102261.63;5075412;28;20397;-68
2022/01/13 04:07:20;;;;;;;68.28;28.75;;;;;;;-5.29;100.00;102276.84;5075024;28;20101;-70
2022/01/13 04:10:27;;;;;;;67.55;29.08;;;;;;;-5.24;100.00;102271.81;5075271;28;20068;-70
2022/01/13 04:12:56;;;;;;;64.57;28.50;;;;;;;-5.36;100.00;102277.47;5074935;28;20052;-70
2022/01/13 04:15:28;;;;;;;68.18;28.95;;;;;;;-5.27;100.00;102279.50;5074806;28;20048;-71
2022/01/13 04:17:57;;;;;;;68.30;28.90;;;;;;;-5.60;100.00;102260.94;5074655;28;20109;-74
2022/01/13 04:20:27;;;;;;;65.43;28.75;;;;;;;-5.79;100.00;102239.47;5075130;28;20044;-71
2022/01/13 04:22:55;;;;;;;71.55;29.80;;;;;;;-5.89;100.00;102226.91;5074619;28;20497;-71
2022/01/13 04:25:23;;;;;;;67.55;28.10;;;;;;;-5.91;100.00;102219.94;5075012;28;20094;-70
2022/01/13 04:28:01;;;;;;;65.95;28.77;;;;;;;-5.91;100.00;102218.22;5074868;28;20120;-70
2022/01/13 04:30:47;;;;;;;70.35;30.75;;;;;;;-5.96;100.00;102214.56;5057299;28;20045;-71
2022/01/13 04:33:16;;;;;;;79.72;33.33;;;;;;;-5.98;100.00;102207.53;5074501;28;20393;-71
2022/01/13 04:35:46;;;;;;;90.38;35.30;;;;;;;-5.97;100.00;102211.94;5074134;28;20048;-71
2022/01/13 04:38:14;;;;;;;90.38;37.20;;;;;;;-5.99;100.00;102213.56;5074418;28;20473;-70
2022/01/13 04:40:47;;;;;;;85.43;36.67;;;;;;;-6.04;100.00;102208.19;5074282;28;20047;-70
2022/01/13 04:43:15;;;;;;;96.93;37.55;;;;;;;-6.06;100.00;102213.34;5074238;28;20041;-71
2022/01/13 04:45:44;;;;;;;92.57;37.92;;;;;;;-6.11;100.00;102216.56;5074190;28;20460;-70
2022/01/13 04:48:12;;;;;;;95.40;39.30;;;;;;;-6.13;100.00;102211.31;5074135;28;20393;-70
2022/01/13 04:50:40;;;;;;;93.22;37.50;;;;;;;-6.01;100.00;102229.09;5074267;28;20037;-70
2022/01/13 04:53:11;;;;;;;89.97;36.90;;;;;;;-5.82;100.00;102234.13;5073993;28;20045;-71
2022/01/13 04:55:40;;;;;;;88.82;36.80;;;;;;;-5.89;100.00;102247.72;5074423;28;20045;-70
2022/01/13 04:58:08;;;;;;;89.78;37.45;;;;;;;-5.84;100.00;102248.78;5073880;28;20196;-70
2022/01/13 05:00:36;;;;;;;88.95;34.95;;;;;;;-5.86;100.00;102249.56;5073894;28;20465;-71
2022/01/13 05:03:04;;;;;;;95.85;38.28;;;;;;;-5.97;100.00;102240.50;5073691;28;20482;-70
2022/01/13 05:05:33;;;;;;;88.88;36.28;;;;;;;-5.84;100.00;102242.69;5074138;28;20049;-71
2022/01/13 05:08:01;;;;;;;100.03;39.30;;;;;;;-5.93;100.00;102251.06;5073695;28;20375;-76
2022/01/13 05:10:30;;;;;;;91.75;37.20;;;;;;;-5.87;100.00;102253.88;5073932;28;20048;-71
2022/01/13 05:12:59;;;;;;;87.40;36.90;;;;;;;-5.86;100.00;102247.84;5073828;28;20102;-70
2022/01/13 05:15:27;;;;;;;99.18;38.47;;;;;;;-5.91;100.00;102259.78;5073715;28;20048;-70
2022/01/13 05:18:11;;;;;;;91.18;37.42;;;;;;;-5.90;100.00;102261.53;5073776;28;20447;-69
2022/01/13 05:20:42;;;;;;;86.03;36.92;;;;;;;-5.99;100.00;102263.81;5073839;28;20094;-71
2022/01/13 05:23:12;;;;;;;86.28;35.55;;;;;;;-6.00;100.00;102275.03;5073339;28;20090;-71
2022/01/13 05:25:43;;;;;;;87.38;35.58;;;;;;;-5.99;100.00;102276.78;5073838;28;20131;-70
2022/01/13 05:28:12;;;;;;;86.75;34.83;;;;;;;-6.04;100.00;102278.34;5073478;28;20041;-71
2022/01/13 05:30:40;;;;;;;86.78;37.10;;;;;;;-6.00;100.00;102287.13;5073682;28;20040;-71
2022/01/13 05:33:09;;;;;;;88.00;36.97;;;;;;;-6.00;100.00;102298.41;5073888;28;20048;-71
2022/01/13 05:35:38;;;;;;;87.47;36.60;;;;;;;-5.99;100.00;102297.59;5073407;28;20059;-69
2022/01/13 05:38:07;;;;;;;82.43;36.55;;;;;;;-5.94;100.00;102280.47;5073493;28;20049;-70
2022/01/13 05:40:36;;;;;;;95.85;38.13;;;;;;;-5.86;100.00;102292.03;5073428;28;20068;-70
2022/01/13 05:43:06;;;;;;;100.00;41.08;;;;;;;-5.85;100.00;102282.53;5073949;28;20041;-70
2022/01/13 05:45:38;;;;;;;102.88;39.75;;;;;;;-5.83;100.00;102281.75;5073425;28;20041;-70
2022/01/13 05:48:07;;;;;;;98.50;39.97;;;;;;;-5.78;100.00;102279.34;5072128;28;20044;-71
2022/01/13 05:50:36;;;;;;;92.32;38.45;;;;;;;-5.71;100.00;102273.53;5055327;28;20052;-70
2022/01/13 05:53:05;;;;;;;86.65;39.35;;;;;;;-5.77;100.00;102261.19;5072936;28;20056;-72
2022/01/13 05:55:38;;;;;;;95.20;35.15;;;;;;;-5.58;100.00;102270.59;5074288;28;20079;-70
2022/01/13 05:58:08;;;;;;;92.07;36.33;;;;;;;-5.52;100.00;102280.31;5072597;28;20490;-71
2022/01/13 06:00:37;;;;;;;150.43;58.58;;;;;;;-5.58;100.00;102274.91;5073043;28;20135;-70
2022/01/13 06:03:05;;;;;;;109.68;47.33;;;;;;;-5.50;100.00;102271.75;5072664;28;20482;-72
2022/01/13 06:05:35;;;;;;;98.60;40.22;;;;;;;-5.32;100.00;102268.03;5072848;28;20090;-70
2022/01/13 06:08:05;;;;;;;86.68;37.45;;;;;;;-5.29;100.00;102271.66;5072918;28;20044;-75
2022/01/13 06:10:34;;;;;;;85.22;35.78;;;;;;;-5.30;100.00;102259.47;5072974;28;20371;-70
2022/01/13 06:13:02;;;;;;;98.10;37.00;;;;;;;-5.33;100.00;102264.56;5072861;28;20051;-70
2022/01/13 06:15:33;;;;;;;86.85;37.42;;;;;;;-5.36;100.00;102267.06;5072423;28;20045;-71
2022/01/13 06:18:12;;;;;;;90.72;38.35;;;;;;;-5.33;100.00;102261.94;5072576;28;20533;-70
2022/01/13 06:20:40;;;;;;;92.57;36.78;;;;;;;-5.17;100.00;102247.78;5072810;28;20048;-70
2022/01/13 06:23:11;;;;;;;87.72;36.00;;;;;;;-5.02;100.00;102257.84;5072407;28;20052;-69
2022/01/13 06:25:39;;;;;;;87.55;35.53;;;;;;;-4.95;100.00;102259.81;5073100;28;20072;-68
2022/01/13 06:28:08;;;;;;;84.05;36.95;;;;;;;-4.96;100.00;102258.06;5072716;28;20044;-69
2022/01/13 06:30:42;;;;;;;;;;;;;;;-4.96;100.00;102265.88;5073460;28;20041;-68
2022/01/13 06:33:11;;;;;;;76.07;31.27;;;;;;;-4.97;100.00;102267.59;5072701;28;19931;-69
2022/01/13 06:35:39;;;;;;;75.57;32.72;;;;;;;-4.86;100.00;102265.34;5072487;28;20051;-69
2022/01/13 06:38:07;;;;;;;74.85;31.65;;;;;;;-4.99;100.00;102266.66;5072859;28;20040;-68
2022/01/13 06:40:36;;;;;;;77.82;32.45;;;;;;;-5.03;100.00;102258.66;5072452;28;20045;-69
2022/01/13 06:43:04;;;;;;;73.68;31.08;;;;;;;-5.05;100.00;102256.03;5072709;28;20075;-69
2022/01/13 06:45:32;;;;;;;73.22;31.52;;;;;;;-5.15;100.00;102260.84;5072888;28;20076;-69
2022/01/13 06:48:03;;;;;;;72.60;31.13;;;;;;;-5.10;100.00;102255.00;5054800;28;20044;-69
2022/01/13 06:50:34;;;;;;;73.32;32.28;;;;;;;-5.05;100.00;102244.72;5072492;28;20392;-70
2022/01/13 06:53:02;;;;;;;63.92;30.05;;;;;;;-5.16;100.00;102240.88;5072295;28;20090;-69
2022/01/13 06:55:30;;;;;;;77.78;31.65;;;;;;;-5.14;100.00;102260.00;5072304;28;20056;-69
2022/01/13 06:57:58;;;;;;;81.32;32.72;;;;;;;-5.17;100.00;102263.41;5073662;28;20049;-71
2022/01/13 07:00:27;;;;;;;76.25;32.40;;;;;;;-5.25;100.00;102259.63;5076190;28;20115;-69
2022/01/13 07:02:58;;;;;;;78.13;32.97;;;;;;;-5.21;100.00;102261.53;5076426;28;20102;-70
2022/01/13 07:05:28;;;;;;;70.32;30.33;;;;;;;-5.27;100.00;102262.19;5058242;28;20202;-69
2022/01/13 07:07:56;;;;;;;83.72;31.33;;;;;;;-5.25;100.00;102260.50;5058265;28;20090;-70
2022/01/13 07:10:24;;;;;;;75.07;30.92;;;;;;;-5.24;100.00;102259.69;5075928;28;20039;-72
2022/01/13 07:12:53;;;;;;;74.65;30.42;;;;;;;-5.00;100.00;102261.41;5075952;28;20123;-71
2022/01/13 07:15:22;;;;;;;66.32;28.70;;;;;;;-4.92;100.00;102265.16;5075575;28;20040;-70
2022/01/13 07:17:51;;;;;;;74.53;29.10;;;;;;;-4.95;100.00;102276.34;5075944;28;20066;-70
2022/01/13 07:20:19;;;;;;;70.40;30.55;;;;;;;-4.99;100.00;102266.66;5057929;28;20106;-71
2022/01/13 07:22:50;;;;;;;67.50;30.40;;;;;;;-4.88;100.00;102272.22;5076412;28;20045;-69
2022/01/13 07:25:19;;;;;;;68.60;29.80;;;;;;;-4.81;100.00;102273.34;5075722;28;20044;-71
2022/01/13 07:27:47;;;;;;;73.85;31.08;;;;;;;-4.88;100.00;102282.66;5075826;28;20481;-70
2022/01/13 07:30:16;;;;;;;75.18;32.03;;;;;;;-4.87;100.00;102283.53;5075493;28;20043;-71
2022/01/13 07:32:44;;;;;;;81.45;32.72;;;;;;;-4.81;100.00;102283.75;5075803;28;20048;-71
2022/01/13 07:35:13;;;;;;;82.63;33.88;;;;;;;-4.79;100.00;102276.88;5075687;28;20048;-71
2022/01/13 07:37:42;;;;;;;90.13;37.65;;;;;;;-4.74;100.00;102281.38;5075366;28;20044;-69
2022/01/13 07:40:15;;;;;;;93.45;36.13;;;;;;;-4.73;100.00;102291.00;5075881;28;20068;-71
2022/01/13 07:42:43;;;;;;;87.50;36.15;;;;;;;-4.63;100.00;102290.47;5075960;28;20044;-72
2022/01/13 07:45:12;;;;;;;85.05;34.03;;;;;;;-4.58;100.00;102287.13;5075639;28;20440;-71
2022/01/13 07:47:41;;;;;;;75.75;32.63;;;;;;;-4.55;100.00;102288.13;5075536;28;20040;-72
2022/01/13 07:50:11;;;;;;;80.55;34.25;;;;;;;-4.62;100.00;102292.25;5075620;28;20409;-71
2022/01/13 07:52:39;;;;;;;86.50;34.60;;;;;;;-4.62;100.00;102292.25;5075617;28;20074;-71
2022/01/13 07:55:09;;;;;;;82.65;35.20;;;;;;;-4.56;100.00;102275.03;5075531;28;20041;-72
2022/01/13 07:57:39;;;;;;;84.15;35.45;;;;;;;-4.40;100.00;102288.63;5074842;28;20048;-72
2022/01/13 08:00:10;;;;;;;79.07;35.17;;;;;;;-4.45;100.00;102291.91;5057814;28;20110;-70
2022/01/13 08:02:39;;;;;;;82.47;33.28;;;;;;;-4.54;100.00;102289.00;5074828;28;20121;-72
2022/01/13 08:05:09;;;;;;;84.72;35.22;;;;;;;-4.54;100.00;102291.59;5075112;28;20051;-71
2022/01/13 08:07:38;;;;;;;83.03;34.63;;;;;;;-4.42;100.00;102299.84;5074924;28;20051;-72
2022/01/13 08:10:06;;;;;;;75.32;35.28;;;;;;;-4.46;100.00;102297.97;5074362;28;20045;-71
2022/01/13 08:12:35;;;;;;;90.18;38.38;;;;;;;-4.44;100.00;102296.28;5074803;28;20123;-72
2022/01/13 08:15:07;;;;;;;82.30;37.72;;;;;;;-4.37;100.00;102298.28;5074875;28;20040;-72
2022/01/13 08:20:21;;;;;;;93.38;41.65;;;;;;;-4.21;100.00;102297.94;5074952;28;20037;-72
2022/01/13 08:22:50;;;;;;;101.13;43.65;;;;;;;-4.16;100.00;102305.91;5075033;28;20083;-70
2022/01/13 08:25:18;;;;;;;105.07;43.05;;;;;;;-4.07;100.00;102304.47;5074822;28;20400;-73
2022/01/13 08:27:47;;;;;;;98.13;42.58;;;;;;;-4.13;100.00;102308.63;5074655;28;20041;-71
2022/01/13 08:30:17;;;;;;;99.40;40.80;;;;;;;-4.15;100.00;102298.16;5074885;28;20048;-71
2022/01/13 08:32:45;;;;;;;96.10;39.50;;;;;;;-4.08;100.00;102296.63;5074864;28;20497;-70
2022/01/13 08:35:14;;;;;;;88.43;37.83;;;;;;;-4.02;100.00;102296.81;5074481;28;20068;-71
2022/01/13 08:37:43;;;;;;;86.28;37.10;;;;;;;-3.95;100.00;102292.69;5074362;28;20049;-71
2022/01/13 08:40:14;;;;;;;88.25;37.00;;;;;;;-3.85;100.00;102290.41;5074630;28;20041;-71
2022/01/13 08:42:43;;;;;;;92.93;38.40;;;;;;;-3.75;100.00;102302.91;5074322;28;20037;-71
2022/01/13 08:45:13;;;;;;;88.82;38.47;;;;;;;-3.68;100.00;102297.84;5074525;28;20040;-70
2022/01/13 08:47:44;;;;;;;87.72;37.95;;;;;;;-3.65;100.00;102290.16;5074093;28;20036;-71
2022/01/13 08:50:13;;;;;;;85.47;38.95;;;;;;;-3.58;100.00;102294.69;5074322;28;20051;-71
2022/01/13 08:52:44;;;;;;;86.72;37.85;;;;;;;-3.50;100.00;102295.81;5074088;28;20048;-72
2022/01/13 08:55:12;;;;;;;85.43;36.95;;;;;;;-3.41;100.00;102293.47;5074149;28;20106;-71
2022/01/13 08:57:41;;;;;;;89.35;37.03;;;;;;;-3.26;100.00;102295.66;5055987;28;20127;-72
2022/01/13 09:00:13;;;;;;;84.68;37.47;;;;;;;-3.19;100.00;102300.19;5074482;28;20051;-71
2022/01/13 09:02:43;;;;;;;83.88;37.30;;;;;;;-3.13;100.00;102295.13;5074131;28;20122;-71
2022/01/13 09:05:14;;;;;;;83.95;36.90;;;;;;;-3.04;100.00;102286.69;5074165;28;20044;-72
2022/01/13 09:07:43;;;;;;;92.75;38.85;;;;;;;-2.89;100.00;102285.38;5073940;28;20406;-72
2022/01/13 09:10:14;;;;;;;93.40;37.83;;;;;;;-2.71;100.00;102281.47;5074104;28;20036;-72
2022/01/13 09:12:43;;;;;;;89.45;36.25;;;;;;;-2.43;100.00;102277.84;5073795;28;20042;-72
2022/01/13 09:15:17;;;;;;;77.45;34.05;;;;;;;-2.32;100.00;102274.69;5073741;28;20048;-73
2022/01/13 09:17:51;;;;;;;73.28;30.17;;;;;;;-1.98;100.00;102267.63;5074364;28;20055;-71
2022/01/13 09:20:20;;;;;;;47.33;19.83;;;;;;;-1.38;100.00;102267.19;5073896;28;20051;-72
2022/01/13 09:22:48;;;;;;;42.70;19.92;;;;;;;-1.00;100.00;102267.06;5073576;28;20036;-71
2022/01/13 09:25:17;;;;;;;56.20;24.52;;;;;;;-0.88;100.00;102285.66;5073413;28;20036;-71
2022/01/13 09:27:45;;;;;;;50.03;20.38;;;;;;;-0.79;100.00;102277.06;5073581;28;20047;-72
2022/01/13 09:30:15;;;;;;;56.03;23.38;;;;;;;-0.69;100.00;102282.50;5073384;28;20047;-71
2022/01/13 09:32:44;;;;;;;56.38;25.45;;;;;;;-0.59;100.00;102284.44;5073448;28;20056;-71
2022/01/13 09:35:14;;;;;;;56.35;23.50;;;;;;;-0.50;100.00;102285.47;5073737;28;20497;-72
2022/01/13 09:37:42;;;;;;;38.92;15.95;;;;;;;-0.40;100.00;102282.13;5073440;28;20052;-72
2022/01/13 09:40:12;;;;;;;48.55;20.30;;;;;;;-0.28;100.00;102281.50;5056001;28;20056;-71
2022/01/13 09:42:42;;;;;;;52.92;21.00;;;;;;;-0.18;100.00;102279.03;5073304;28;20044;-71
2022/01/13 09:45:12;;;;;;;52.92;21.92;;;;;;;-0.16;100.00;102277.31;5073530;28;20089;-71
2022/01/13 09:47:43;;;;;;;45.47;17.67;;;;;;;-0.12;100.00;102279.13;5073200;28;20074;-71
2022/01/13 09:50:16;;;;;;;44.17;20.45;;;;;;;-0.10;100.00;102269.53;5073495;28;20465;-72
2022/01/13 09:52:45;;;;;;;50.88;20.15;;;;;;;-0.06;100.00;102263.47;5073234;28;20049;-71
2022/01/13 09:55:15;;;;;;;45.67;20.45;;;;;;;0.05;100.00;102254.88;5073068;28;20041;-70
2022/01/13 09:57:44;;;;;;;49.05;21.50;;;;;;;0.13;100.00;102248.91;5072947;28;20537;-71
2022/01/13 10:00:15;;;;;;;50.22;22.08;;;;;;;0.15;100.00;102244.53;5073397;28;20071;-71
2022/01/13 10:02:43;;;;;;;48.70;21.23;;;;;;;0.19;100.00;102248.09;5072823;28;20083;-72
2022/01/13 10:05:16;;;;;;;33.03;12.48;;;;;;;0.30;100.00;102243.88;5073254;28;20474;-71
2022/01/13 10:07:46;;;;;;;46.22;20.10;;;;;;;0.38;100.00;102239.59;5073065;28;20049;-71
2022/01/13 10:10:28;;;;;;;46.10;20.13;;;;;;;0.51;100.00;102225.78;5073265;28;20041;-71
2022/01/13 10:13:02;;;;;;;43.00;18.42;;;;;;;0.60;100.00;102225.03;5072970;28;20119;-71
2022/01/13 10:18:42;;;;;;;44.60;20.40;;;;;;;0.88;100.00;102215.72;5072760;28;20036;-71
2022/01/13 10:21:15;;;;;;;39.97;18.00;;;;;;;1.00;100.00;102209.69;5072948;28;20041;-71
2022/01/13 10:24:06;;;;;;;39.05;18.70;;;;;;;1.08;100.00;102206.28;5072994;28;20474;-71
2022/01/13 10:26:35;;;;;;;37.75;17.83;;;;;;;1.07;100.00;102216.78;5072720;28;20036;-71
2022/01/13 10:29:07;;;;;;;39.92;18.60;;;;;;;1.10;100.00;102201.91;5072908;28;20498;-71
2022/01/13 10:31:50;;;;;;;42.95;18.27;;;;;;;1.01;100.00;102203.56;5072938;28;20040;-70
2022/01/13 10:34:25;;;;;;;39.87;18.07;;;;;;;1.05;100.00;102197.47;5036654;28;20045;-72
2022/01/13 10:37:11;;;;;;;40.20;17.83;;;;;;;1.06;100.00;102208.03;5037675;28;20049;-71
2022/01/13 10:40:07;;;;;;;38.83;17.92;;;;;;;0.96;100.00;102193.00;5036948;28;20048;-71
2022/01/13 10:45:30;;;;;;;43.53;18.63;;;;;;;0.91;100.00;102197.34;5035069;28;20053;-75
2022/01/13 10:48:00;;;;;;;38.13;18.42;;;;;;;0.74;100.00;102202.41;5037101;28;20376;-72
2022/01/13 10:50:29;;;;;;;35.53;17.13;;;;;;;0.79;100.00;102199.84;5036820;28;20100;-73
2022/01/13 10:53:04;;;;;;;34.35;15.55;;;;;;;0.80;100.00;102198.97;5036944;28;20120;-71
2022/01/13 10:55:37;;;;;;;41.47;17.05;;;;;;;0.82;100.00;102198.13;5036331;28;20487;-72
2022/01/13 10:58:13;;;;;;;25.20;11.18;;;;;;;0.82;100.00;102182.34;5036540;28;20422;-73
2022/01/13 11:00:41;;;;;;;41.05;16.85;;;;;;;0.86;100.00;102173.63;5036382;28;20128;-72
2022/01/13 11:03:12;;;;;;;35.03;17.35;;;;;;;0.98;100.00;102178.16;5035790;28;20049;-71
2022/01/13 11:05:44;;;;;;;34.97;16.48;;;;;;;0.88;100.00;102178.06;5036361;28;20064;-72
2022/01/13 11:08:24;;;;;;;40.45;17.92;;;;;;;0.84;100.00;102182.38;5036619;28;20046;-72
2022/01/13 11:10:55;;;;;;;36.55;14.75;;;;;;;0.98;100.00;102186.03;5036266;28;20120;-71
2022/01/13 11:13:26;;;;;;;38.38;17.50;;;;;;;0.95;100.00;102172.84;5036380;28;20038;-71
2022/01/13 11:15:56;;;;;;;32.47;15.98;;;;;;;1.03;100.00;102168.56;5036569;28;20128;-72
2022/01/13 11:18:27;;;;;;;43.10;19.20;;;;;;;1.02;100.00;102161.53;5036042;28;20471;-72
2022/01/13 11:20:57;;;;;;;40.15;17.67;;;;;;;1.00;100.00;102158.03;5036347;28;20040;-71
2022/01/13 11:23:27;;;;;;;39.83;16.50;;;;;;;1.04;100.00;102154.53;5036075;28;20045;-71
2022/01/13 11:25:58;;;;;;;32.28;15.15;;;;;;;1.10;100.00;102149.34;5036066;28;20052;-72
2022/01/13 11:28:26;;;;;;;39.08;19.23;;;;;;;1.05;100.00;102156.28;5036186;28;20045;-72
2022/01/13 11:30:54;;;;;;;39.65;17.38;;;;;;;1.09;100.00;102157.22;5036323;28;20115;-72
2022/01/13 11:33:23;;;;;;;40.72;19.52;;;;;;;1.09;100.00;102154.59;5061957;28;20057;-71
2022/01/13 11:35:59;;;;;;;39.60;17.73;;;;;;;1.17;100.00;102154.66;5075357;28;20101;-71